sensor_id;sensor_type;location;lat;lon;timestamp;P1;durP1;ratioP1;P2;durP2;ratioP2
12118;SDS011;6123;48.864;9.200;2023-01-10T00:00:28;0.77;;;0.47;;
12118;SDS011;6123;48.864;9.200;2023-01-10T00:03:05;0.50;;;0.40;;
12118;SDS011;6123;48.864;9.200;2023-01-10T00:05:32;2.47;;;0.60;;
12118;SDS011;6123;48.864;9.200;2023-01-10T00:08:01;0.75;;;0.50;;
12118;SDS011;6123;48.864;9.200;2023-01-10T00:10:27;0.50;;;0.50;;
12118;SDS011;6123;48.864;9.200;2023-01-10T00:12:54;0.40;;;0.40;;
12118;SDS011;6123;48.864;9.200;2023-01-10T00:15:43;0.75;;;0.55;;
12118;SDS011;6123;48.864;9.200;2023-01-10T00:18:11;1.10;;;1.00;;
12118;SDS011;6123;48.864;9.200;2023-01-10T00:20:37;0.90;;;0.90;;
12118;SDS011;6123;48.864;9.200;2023-01-10T00:23:03;0.90;;;0.90;;
12118;SDS011;6123;48.864;9.200;2023-01-10T00:25:29;0.80;;;0.80;;
12118;SDS011;6123;48.864;9.200;2023-01-10T00:27:57;0.90;;;0.90;;
12118;SDS011;6123;48.864;9.200;2023-01-10T00:30:36;1.05;;;1.00;;
12118;SDS011;6123;48.864;9.200;2023-01-10T00:33:03;1.23;;;1.20;;
12118;SDS011;6123;48.864;9.200;2023-01-10T00:35:29;1.20;;;1.10;;
12118;SDS011;6123;48.864;9.200;2023-01-10T00:37:55;1.20;;;1.10;;
12118;SDS011;6123;48.864;9.200;2023-01-10T00:40:30;1.38;;;0.90;;
12118;SDS011;6123;48.864;9.200;2023-01-10T00:42:56;1.67;;;1.10;;
12118;SDS011;6123;48.864;9.200;2023-01-10T00:45:43;1.48;;;1.38;;
12118;SDS011;6123;48.864;9.200;2023-01-10T00:48:15;1.45;;;1.20;;
12118;SDS011;6123;48.864;9.200;2023-01-10T00:50:41;1.40;;;1.30;;
12118;SDS011;6123;48.864;9.200;2023-01-10T00:53:07;1.65;;;1.30;;
12118;SDS011;6123;48.864;9.200;2023-01-10T00:55:33;1.08;;;1.08;;
12118;SDS011;6123;48.864;9.200;2023-01-10T00:58:00;1.52;;;1.33;;
12118;SDS011;6123;48.864;9.200;2023-01-10T01:00:26;1.58;;;1.48;;
12118;SDS011;6123;48.864;9.200;2023-01-10T01:02:52;1.50;;;1.40;;
12118;SDS011;6123;48.864;9.200;2023-01-10T01:05:20;1.38;;;1.27;;
12118;SDS011;6123;48.864;9.200;2023-01-10T01:07:47;1.52;;;1.40;;
12118;SDS011;6123;48.864;9.200;2023-01-10T01:10:13;2.42;;;1.52;;
12118;SDS011;6123;48.864;9.200;2023-01-10T01:12:51;1.60;;;1.48;;
12118;SDS011;6123;48.864;9.200;2023-01-10T01:15:22;2.25;;;1.48;;
12118;SDS011;6123;48.864;9.200;2023-01-10T01:17:48;1.63;;;1.52;;
12118;SDS011;6123;48.864;9.200;2023-01-10T01:20:17;1.52;;;1.42;;
12118;SDS011;6123;48.864;9.200;2023-01-10T01:22:44;1.90;;;1.65;;
12118;SDS011;6123;48.864;9.200;2023-01-10T01:25:12;2.30;;;1.63;;
12118;SDS011;6123;48.864;9.200;2023-01-10T01:27:38;1.83;;;1.50;;
12118;SDS011;6123;48.864;9.200;2023-01-10T01:30:04;1.50;;;1.40;;
12118;SDS011;6123;48.864;9.200;2023-01-10T01:32:31;1.25;;;1.15;;
12118;SDS011;6123;48.864;9.200;2023-01-10T01:34:57;1.40;;;1.30;;
12118;SDS011;6123;48.864;9.200;2023-01-10T01:37:27;1.88;;;1.30;;
12118;SDS011;6123;48.864;9.200;2023-01-10T01:39:52;0.90;;;0.90;;
12118;SDS011;6123;48.864;9.200;2023-01-10T01:42:26;1.95;;;1.77;;
12118;SDS011;6123;48.864;9.200;2023-01-10T01:47:58;1.80;;;0.90;;
12118;SDS011;6123;48.864;9.200;2023-01-10T01:56:16;1.02;;;1.00;;
12118;SDS011;6123;48.864;9.200;2023-01-10T02:01:39;0.93;;;0.93;;
12118;SDS011;6123;48.864;9.200;2023-01-10T02:04:12;1.00;;;1.00;;
12118;SDS011;6123;48.864;9.200;2023-01-10T02:06:43;1.77;;;1.20;;
12118;SDS011;6123;48.864;9.200;2023-01-10T02:09:18;0.90;;;0.90;;
12118;SDS011;6123;48.864;9.200;2023-01-10T02:11:52;1.10;;;1.10;;
12118;SDS011;6123;48.864;9.200;2023-01-10T02:14:18;0.95;;;0.95;;
12118;SDS011;6123;48.864;9.200;2023-01-10T02:16:45;1.45;;;1.00;;
12118;SDS011;6123;48.864;9.200;2023-01-10T02:30:36;1.35;;;1.25;;
12118;SDS011;6123;48.864;9.200;2023-01-10T02:33:23;1.73;;;1.17;;
12118;SDS011;6123;48.864;9.200;2023-01-10T02:38:53;3.78;;;1.50;;
12118;SDS011;6123;48.864;9.200;2023-01-10T02:41:44;1.88;;;1.55;;
12118;SDS011;6123;48.864;9.200;2023-01-10T02:44:22;2.75;;;1.40;;
12118;SDS011;6123;48.864;9.200;2023-01-10T02:46:54;2.10;;;1.52;;
12118;SDS011;6123;48.864;9.200;2023-01-10T02:49:20;1.85;;;1.75;;
12118;SDS011;6123;48.864;9.200;2023-01-10T02:51:46;1.88;;;1.65;;
12118;SDS011;6123;48.864;9.200;2023-01-10T02:54:22;1.67;;;1.55;;
12118;SDS011;6123;48.864;9.200;2023-01-10T03:04:57;1.38;;;1.13;;
12118;SDS011;6123;48.864;9.200;2023-01-10T03:10:35;1.55;;;1.33;;
12118;SDS011;6123;48.864;9.200;2023-01-10T03:13:25;1.30;;;1.20;;
12118;SDS011;6123;48.864;9.200;2023-01-10T03:15:57;2.63;;;1.75;;
12118;SDS011;6123;48.864;9.200;2023-01-10T03:18:27;1.90;;;1.60;;
12118;SDS011;6123;48.864;9.200;2023-01-10T03:21:02;2.13;;;1.80;;
12118;SDS011;6123;48.864;9.200;2023-01-10T03:23:31;1.77;;;1.42;;
12118;SDS011;6123;48.864;9.200;2023-01-10T03:25:58;3.67;;;2.00;;
12118;SDS011;6123;48.864;9.200;2023-01-10T03:28:48;2.13;;;1.85;;
12118;SDS011;6123;48.864;9.200;2023-01-10T03:31:27;5.57;;;2.13;;
12118;SDS011;6123;48.864;9.200;2023-01-10T03:34:03;4.28;;;2.60;;
12118;SDS011;6123;48.864;9.200;2023-01-10T03:36:30;3.55;;;2.10;;
12118;SDS011;6123;48.864;9.200;2023-01-10T03:39:17;4.35;;;2.15;;
12118;SDS011;6123;48.864;9.200;2023-01-10T03:41:55;3.60;;;1.88;;
12118;SDS011;6123;48.864;9.200;2023-01-10T03:44:32;3.15;;;1.77;;
12118;SDS011;6123;48.864;9.200;2023-01-10T03:47:17;2.08;;;1.98;;
12118;SDS011;6123;48.864;9.200;2023-01-10T03:50:08;2.53;;;2.03;;
12118;SDS011;6123;48.864;9.200;2023-01-10T03:52:41;3.65;;;2.22;;
12118;SDS011;6123;48.864;9.200;2023-01-10T03:55:09;3.55;;;2.45;;
12118;SDS011;6123;48.864;9.200;2023-01-10T03:57:40;2.42;;;2.22;;
12118;SDS011;6123;48.864;9.200;2023-01-10T04:00:07;4.63;;;2.42;;
12118;SDS011;6123;48.864;9.200;2023-01-10T04:02:38;2.45;;;2.22;;
12118;SDS011;6123;48.864;9.200;2023-01-10T04:05:04;2.17;;;1.88;;
12118;SDS011;6123;48.864;9.200;2023-01-10T04:07:30;3.63;;;2.47;;
12118;SDS011;6123;48.864;9.200;2023-01-10T04:09:56;4.70;;;2.75;;
12118;SDS011;6123;48.864;9.200;2023-01-10T04:12:24;3.33;;;2.25;;
12118;SDS011;6123;48.864;9.200;2023-01-10T04:14:52;3.38;;;2.13;;
12118;SDS011;6123;48.864;9.200;2023-01-10T04:17:18;3.00;;;2.30;;
12118;SDS011;6123;48.864;9.200;2023-01-10T04:19:44;2.58;;;1.95;;
12118;SDS011;6123;48.864;9.200;2023-01-10T04:22:12;2.75;;;2.05;;
12118;SDS011;6123;48.864;9.200;2023-01-10T04:24:37;2.53;;;1.88;;
12118;SDS011;6123;48.864;9.200;2023-01-10T04:27:03;2.92;;;1.88;;
12118;SDS011;6123;48.864;9.200;2023-01-10T04:29:30;3.03;;;2.08;;
12118;SDS011;6123;48.864;9.200;2023-01-10T04:31:58;2.63;;;2.30;;
12118;SDS011;6123;48.864;9.200;2023-01-10T04:34:24;5.38;;;3.00;;
12118;SDS011;6123;48.864;9.200;2023-01-10T04:36:53;2.90;;;2.25;;
12118;SDS011;6123;48.864;9.200;2023-01-10T04:39:21;4.25;;;2.40;;
12118;SDS011;6123;48.864;9.200;2023-01-10T04:41:46;4.63;;;2.47;;
12118;SDS011;6123;48.864;9.200;2023-01-10T04:44:12;3.25;;;2.72;;
12118;SDS011;6123;48.864;9.200;2023-01-10T04:46:37;5.80;;;2.78;;
12118;SDS011;6123;48.864;9.200;2023-01-10T04:49:03;3.15;;;2.60;;
12118;SDS011;6123;48.864;9.200;2023-01-10T04:51:30;4.57;;;2.72;;
12118;SDS011;6123;48.864;9.200;2023-01-10T04:53:57;4.97;;;2.92;;
12118;SDS011;6123;48.864;9.200;2023-01-10T04:56:23;5.32;;;2.78;;
12118;SDS011;6123;48.864;9.200;2023-01-10T04:58:49;4.78;;;2.17;;
12118;SDS011;6123;48.864;9.200;2023-01-10T05:01:18;3.13;;;2.33;;
12118;SDS011;6123;48.864;9.200;2023-01-10T05:03:47;4.30;;;2.47;;
12118;SDS011;6123;48.864;9.200;2023-01-10T05:06:13;4.90;;;2.40;;
12118;SDS011;6123;48.864;9.200;2023-01-10T05:08:42;7.13;;;2.17;;
12118;SDS011;6123;48.864;9.200;2023-01-10T05:11:08;4.32;;;2.20;;
12118;SDS011;6123;48.864;9.200;2023-01-10T05:13:37;4.05;;;2.67;;
12118;SDS011;6123;48.864;9.200;2023-01-10T05:16:03;7.85;;;2.03;;
12118;SDS011;6123;48.864;9.200;2023-01-10T05:18:29;4.70;;;2.05;;
12118;SDS011;6123;48.864;9.200;2023-01-10T05:21:01;6.35;;;2.65;;
12118;SDS011;6123;48.864;9.200;2023-01-10T05:23:28;5.57;;;2.30;;
12118;SDS011;6123;48.864;9.200;2023-01-10T05:25:54;4.55;;;2.40;;
12118;SDS011;6123;48.864;9.200;2023-01-10T05:28:28;7.10;;;2.45;;
12118;SDS011;6123;48.864;9.200;2023-01-10T05:30:54;7.85;;;2.80;;
12118;SDS011;6123;48.864;9.200;2023-01-10T05:33:20;11.27;;;2.92;;
12118;SDS011;6123;48.864;9.200;2023-01-10T05:35:45;6.25;;;2.33;;
12118;SDS011;6123;48.864;9.200;2023-01-10T05:38:11;3.70;;;1.92;;
12118;SDS011;6123;48.864;9.200;2023-01-10T05:40:36;6.38;;;2.70;;
12118;SDS011;6123;48.864;9.200;2023-01-10T05:43:02;4.55;;;2.15;;
12118;SDS011;6123;48.864;9.200;2023-01-10T05:45:28;4.57;;;2.35;;
12118;SDS011;6123;48.864;9.200;2023-01-10T05:47:53;7.25;;;2.53;;
12118;SDS011;6123;48.864;9.200;2023-01-10T05:50:19;5.95;;;2.63;;
12118;SDS011;6123;48.864;9.200;2023-01-10T05:52:44;6.43;;;2.88;;
12118;SDS011;6123;48.864;9.200;2023-01-10T05:55:10;5.90;;;1.92;;
12118;SDS011;6123;48.864;9.200;2023-01-10T05:57:36;6.18;;;2.45;;
12118;SDS011;6123;48.864;9.200;2023-01-10T06:00:02;6.75;;;2.60;;
12118;SDS011;6123;48.864;9.200;2023-01-10T06:02:30;6.82;;;2.40;;
12118;SDS011;6123;48.864;9.200;2023-01-10T06:04:59;7.78;;;2.75;;
12118;SDS011;6123;48.864;9.200;2023-01-10T06:07:24;5.63;;;2.65;;
12118;SDS011;6123;48.864;9.200;2023-01-10T06:09:50;7.55;;;2.33;;
12118;SDS011;6123;48.864;9.200;2023-01-10T06:12:16;6.13;;;2.47;;
12118;SDS011;6123;48.864;9.200;2023-01-10T06:14:44;6.22;;;2.00;;
12118;SDS011;6123;48.864;9.200;2023-01-10T06:17:12;6.68;;;2.10;;
12118;SDS011;6123;48.864;9.200;2023-01-10T06:19:38;7.93;;;2.55;;
12118;SDS011;6123;48.864;9.200;2023-01-10T06:22:04;8.23;;;2.88;;
12118;SDS011;6123;48.864;9.200;2023-01-10T06:24:29;7.15;;;1.98;;
12118;SDS011;6123;48.864;9.200;2023-01-10T06:26:55;6.90;;;2.17;;
12118;SDS011;6123;48.864;9.200;2023-01-10T06:29:21;6.90;;;2.22;;
12118;SDS011;6123;48.864;9.200;2023-01-10T06:31:47;6.57;;;2.05;;
12118;SDS011;6123;48.864;9.200;2023-01-10T06:34:13;5.80;;;2.40;;
12118;SDS011;6123;48.864;9.200;2023-01-10T06:36:38;8.32;;;2.35;;
12118;SDS011;6123;48.864;9.200;2023-01-10T06:39:04;7.68;;;2.55;;
12118;SDS011;6123;48.864;9.200;2023-01-10T06:41:29;4.72;;;2.17;;
12118;SDS011;6123;48.864;9.200;2023-01-10T06:43:55;4.38;;;2.40;;
12118;SDS011;6123;48.864;9.200;2023-01-10T06:46:25;2.85;;;2.00;;
12118;SDS011;6123;48.864;9.200;2023-01-10T06:48:51;6.93;;;2.33;;
12118;SDS011;6123;48.864;9.200;2023-01-10T06:51:17;5.63;;;2.03;;
12118;SDS011;6123;48.864;9.200;2023-01-10T06:53:45;12.20;;;2.40;;
12118;SDS011;6123;48.864;9.200;2023-01-10T06:56:10;6.10;;;2.03;;
12118;SDS011;6123;48.864;9.200;2023-01-10T06:58:36;6.38;;;2.03;;
12118;SDS011;6123;48.864;9.200;2023-01-10T07:01:06;6.63;;;2.63;;
12118;SDS011;6123;48.864;9.200;2023-01-10T07:03:39;6.13;;;2.00;;
12118;SDS011;6123;48.864;9.200;2023-01-10T07:06:05;6.20;;;1.80;;
12118;SDS011;6123;48.864;9.200;2023-01-10T07:08:41;6.82;;;2.15;;
12118;SDS011;6123;48.864;9.200;2023-01-10T07:11:09;5.78;;;2.33;;
12118;SDS011;6123;48.864;9.200;2023-01-10T07:13:35;3.70;;;2.20;;
12118;SDS011;6123;48.864;9.200;2023-01-10T07:16:04;6.90;;;3.00;;
12118;SDS011;6123;48.864;9.200;2023-01-10T07:18:38;5.90;;;2.65;;
12118;SDS011;6123;48.864;9.200;2023-01-10T07:21:05;6.15;;;3.00;;
12118;SDS011;6123;48.864;9.200;2023-01-10T07:23:31;8.52;;;3.17;;
12118;SDS011;6123;48.864;9.200;2023-01-10T07:26:00;4.07;;;2.60;;
12118;SDS011;6123;48.864;9.200;2023-01-10T07:28:31;7.82;;;2.92;;
12118;SDS011;6123;48.864;9.200;2023-01-10T07:31:00;5.05;;;2.50;;
12118;SDS011;6123;48.864;9.200;2023-01-10T07:33:29;5.47;;;1.80;;
12118;SDS011;6123;48.864;9.200;2023-01-10T07:35:56;6.57;;;2.47;;
12118;SDS011;6123;48.864;9.200;2023-01-10T07:38:22;6.15;;;2.15;;
12118;SDS011;6123;48.864;9.200;2023-01-10T07:40:47;8.02;;;3.05;;
12118;SDS011;6123;48.864;9.200;2023-01-10T07:43:13;3.83;;;2.20;;
12118;SDS011;6123;48.864;9.200;2023-01-10T07:45:39;7.40;;;2.67;;
12118;SDS011;6123;48.864;9.200;2023-01-10T07:48:05;6.80;;;2.70;;
12118;SDS011;6123;48.864;9.200;2023-01-10T07:50:34;5.85;;;2.70;;
12118;SDS011;6123;48.864;9.200;2023-01-10T07:53:00;7.70;;;2.83;;
12118;SDS011;6123;48.864;9.200;2023-01-10T07:55:27;5.60;;;2.60;;
12118;SDS011;6123;48.864;9.200;2023-01-10T07:57:53;7.40;;;2.47;;
12118;SDS011;6123;48.864;9.200;2023-01-10T08:00:19;5.93;;;2.78;;
12118;SDS011;6123;48.864;9.200;2023-01-10T08:02:45;5.43;;;2.67;;
12118;SDS011;6123;48.864;9.200;2023-01-10T08:05:12;6.05;;;2.42;;
12118;SDS011;6123;48.864;9.200;2023-01-10T08:07:40;4.68;;;1.90;;
12118;SDS011;6123;48.864;9.200;2023-01-10T08:10:06;7.63;;;2.60;;
12118;SDS011;6123;48.864;9.200;2023-01-10T08:12:34;5.88;;;2.78;;
12118;SDS011;6123;48.864;9.200;2023-01-10T08:15:02;9.38;;;2.83;;
12118;SDS011;6123;48.864;9.200;2023-01-10T08:17:33;7.18;;;2.60;;
12118;SDS011;6123;48.864;9.200;2023-01-10T08:20:01;5.15;;;2.28;;
12118;SDS011;6123;48.864;9.200;2023-01-10T08:22:27;5.80;;;2.17;;
12118;SDS011;6123;48.864;9.200;2023-01-10T08:24:55;5.88;;;2.50;;
12118;SDS011;6123;48.864;9.200;2023-01-10T08:27:21;6.35;;;2.28;;
12118;SDS011;6123;48.864;9.200;2023-01-10T08:29:46;7.22;;;2.30;;
12118;SDS011;6123;48.864;9.200;2023-01-10T08:32:12;8.20;;;2.72;;
12118;SDS011;6123;48.864;9.200;2023-01-10T08:34:38;6.70;;;2.40;;
12118;SDS011;6123;48.864;9.200;2023-01-10T08:37:03;6.90;;;2.38;;
12118;SDS011;6123;48.864;9.200;2023-01-10T08:39:29;5.97;;;2.33;;
12118;SDS011;6123;48.864;9.200;2023-01-10T08:41:55;6.45;;;2.30;;
12118;SDS011;6123;48.864;9.200;2023-01-10T08:46:57;6.20;;;2.38;;
12118;SDS011;6123;48.864;9.200;2023-01-10T08:49:23;3.85;;;1.67;;
12118;SDS011;6123;48.864;9.200;2023-01-10T08:51:48;7.63;;;2.85;;
12118;SDS011;6123;48.864;9.200;2023-01-10T08:54:16;5.57;;;2.08;;
12118;SDS011;6123;48.864;9.200;2023-01-10T08:56:41;6.40;;;2.75;;
12118;SDS011;6123;48.864;9.200;2023-01-10T08:59:09;6.38;;;2.63;;
12118;SDS011;6123;48.864;9.200;2023-01-10T09:01:35;4.70;;;2.53;;
12118;SDS011;6123;48.864;9.200;2023-01-10T09:04:01;6.35;;;2.95;;
12118;SDS011;6123;48.864;9.200;2023-01-10T09:06:27;10.25;;;2.42;;
12118;SDS011;6123;48.864;9.200;2023-01-10T09:08:52;7.53;;;2.92;;
12118;SDS011;6123;48.864;9.200;2023-01-10T09:11:18;7.05;;;2.80;;
12118;SDS011;6123;48.864;9.200;2023-01-10T09:13:47;5.93;;;2.67;;
12118;SDS011;6123;48.864;9.200;2023-01-10T09:16:14;5.03;;;2.42;;
12118;SDS011;6123;48.864;9.200;2023-01-10T09:18:40;6.50;;;2.42;;
12118;SDS011;6123;48.864;9.200;2023-01-10T09:21:06;4.28;;;2.00;;
12118;SDS011;6123;48.864;9.200;2023-01-10T09:23:34;8.13;;;2.30;;
12118;SDS011;6123;48.864;9.200;2023-01-10T09:26:00;3.47;;;2.30;;
12118;SDS011;6123;48.864;9.200;2023-01-10T09:28:26;5.30;;;2.35;;
12118;SDS011;6123;48.864;9.200;2023-01-10T09:30:52;7.85;;;2.80;;
12118;SDS011;6123;48.864;9.200;2023-01-10T09:33:18;6.57;;;2.08;;
12118;SDS011;6123;48.864;9.200;2023-01-10T09:35:44;7.20;;;2.53;;
12118;SDS011;6123;48.864;9.200;2023-01-10T09:38:11;6.22;;;2.47;;
12118;SDS011;6123;48.864;9.200;2023-01-10T09:43:32;5.22;;;2.10;;
12118;SDS011;6123;48.864;9.200;2023-01-10T09:48:48;7.30;;;2.78;;
12118;SDS011;6123;48.864;9.200;2023-01-10T09:51:34;5.45;;;1.90;;
12118;SDS011;6123;48.864;9.200;2023-01-10T09:54:01;4.63;;;2.15;;
12118;SDS011;6123;48.864;9.200;2023-01-10T09:56:30;4.68;;;2.20;;
12118;SDS011;6123;48.864;9.200;2023-01-10T09:59:00;5.45;;;2.05;;
12118;SDS011;6123;48.864;9.200;2023-01-10T10:01:29;5.38;;;1.83;;
12118;SDS011;6123;48.864;9.200;2023-01-10T10:06:56;3.15;;;1.70;;
12118;SDS011;6123;48.864;9.200;2023-01-10T10:09:25;3.67;;;1.70;;
12118;SDS011;6123;48.864;9.200;2023-01-10T10:15:11;3.38;;;1.83;;
12118;SDS011;6123;48.864;9.200;2023-01-10T10:17:46;7.07;;;2.08;;
12118;SDS011;6123;48.864;9.200;2023-01-10T10:25:55;4.88;;;1.75;;
12118;SDS011;6123;48.864;9.200;2023-01-10T10:36:37;6.28;;;2.45;;
12118;SDS011;6123;48.864;9.200;2023-01-10T10:39:56;3.58;;;1.95;;
12118;SDS011;6123;48.864;9.200;2023-01-10T10:42:05;5.32;;;2.40;;
12118;SDS011;6123;48.864;9.200;2023-01-10T10:44:41;6.65;;;2.80;;
12118;SDS011;6123;48.864;9.200;2023-01-10T10:47:20;5.50;;;2.35;;
12118;SDS011;6123;48.864;9.200;2023-01-10T10:52:25;6.25;;;2.22;;
12118;SDS011;6123;48.864;9.200;2023-01-10T10:54:54;2.53;;;1.55;;
12118;SDS011;6123;48.864;9.200;2023-01-10T10:57:22;3.65;;;1.70;;
12118;SDS011;6123;48.864;9.200;2023-01-10T10:59:51;4.07;;;1.42;;
12118;SDS011;6123;48.864;9.200;2023-01-10T11:05:04;3.22;;;1.70;;
12118;SDS011;6123;48.864;9.200;2023-01-10T11:07:33;4.18;;;1.65;;
12118;SDS011;6123;48.864;9.200;2023-01-10T11:10:04;4.85;;;1.73;;
12118;SDS011;6123;48.864;9.200;2023-01-10T11:12:45;8.73;;;2.13;;
12118;SDS011;6123;48.864;9.200;2023-01-10T11:15:34;5.25;;;1.98;;
12118;SDS011;6123;48.864;9.200;2023-01-10T11:18:12;6.50;;;2.10;;
12118;SDS011;6123;48.864;9.200;2023-01-10T11:21:14;4.32;;;2.10;;
12118;SDS011;6123;48.864;9.200;2023-01-10T11:23:51;6.63;;;2.20;;
12118;SDS011;6123;48.864;9.200;2023-01-10T11:28:48;4.25;;;1.75;;
12118;SDS011;6123;48.864;9.200;2023-01-10T11:31:29;3.28;;;1.60;;
12118;SDS011;6123;48.864;9.200;2023-01-10T11:33:56;5.22;;;1.83;;
12118;SDS011;6123;48.864;9.200;2023-01-10T11:36:22;4.78;;;1.80;;
12118;SDS011;6123;48.864;9.200;2023-01-10T11:38:58;4.88;;;1.60;;
12118;SDS011;6123;48.864;9.200;2023-01-10T11:41:26;2.28;;;1.40;;
12118;SDS011;6123;48.864;9.200;2023-01-10T11:44:14;4.80;;;1.75;;
12118;SDS011;6123;48.864;9.200;2023-01-10T11:46:43;3.72;;;1.67;;
12118;SDS011;6123;48.864;9.200;2023-01-10T11:49:11;3.88;;;1.58;;
12118;SDS011;6123;48.864;9.200;2023-01-10T11:51:55;5.07;;;2.15;;
12118;SDS011;6123;48.864;9.200;2023-01-10T11:54:28;6.40;;;1.67;;
12118;SDS011;6123;48.864;9.200;2023-01-10T11:59:33;4.55;;;1.45;;
12118;SDS011;6123;48.864;9.200;2023-01-10T12:02:03;3.58;;;1.60;;
12118;SDS011;6123;48.864;9.200;2023-01-10T12:04:42;3.35;;;1.92;;
12118;SDS011;6123;48.864;9.200;2023-01-10T12:07:11;5.93;;;2.28;;
12118;SDS011;6123;48.864;9.200;2023-01-10T12:09:40;3.55;;;1.77;;
12118;SDS011;6123;48.864;9.200;2023-01-10T12:12:18;3.38;;;1.80;;
12118;SDS011;6123;48.864;9.200;2023-01-10T12:14:48;5.00;;;2.22;;
12118;SDS011;6123;48.864;9.200;2023-01-10T12:19:59;3.47;;;2.00;;
12118;SDS011;6123;48.864;9.200;2023-01-10T12:22:30;2.88;;;1.88;;
12118;SDS011;6123;48.864;9.200;2023-01-10T12:25:01;8.05;;;2.15;;
12118;SDS011;6123;48.864;9.200;2023-01-10T12:27:31;3.53;;;1.40;;
12118;SDS011;6123;48.864;9.200;2023-01-10T12:30:03;4.28;;;1.65;;
12118;SDS011;6123;48.864;9.200;2023-01-10T12:32:37;5.90;;;1.73;;
12118;SDS011;6123;48.864;9.200;2023-01-10T12:35:14;4.28;;;1.70;;
12118;SDS011;6123;48.864;9.200;2023-01-10T12:37:52;4.78;;;1.75;;
12118;SDS011;6123;48.864;9.200;2023-01-10T12:45:55;6.30;;;1.60;;
12118;SDS011;6123;48.864;9.200;2023-01-10T12:48:44;6.05;;;2.13;;
12118;SDS011;6123;48.864;9.200;2023-01-10T12:51:11;4.40;;;2.25;;
12118;SDS011;6123;48.864;9.200;2023-01-10T12:53:51;4.05;;;2.00;;
12118;SDS011;6123;48.864;9.200;2023-01-10T12:56:20;3.28;;;1.75;;
12118;SDS011;6123;48.864;9.200;2023-01-10T12:58:50;4.28;;;1.80;;
12118;SDS011;6123;48.864;9.200;2023-01-10T13:01:33;5.05;;;1.50;;
12118;SDS011;6123;48.864;9.200;2023-01-10T13:04:13;4.43;;;1.70;;
12118;SDS011;6123;48.864;9.200;2023-01-10T13:06:42;4.13;;;1.55;;
12118;SDS011;6123;48.864;9.200;2023-01-10T13:09:12;3.97;;;1.70;;
12118;SDS011;6123;48.864;9.200;2023-01-10T13:14:30;3.35;;;1.48;;
12118;SDS011;6123;48.864;9.200;2023-01-10T13:17:09;4.95;;;2.20;;
12118;SDS011;6123;48.864;9.200;2023-01-10T13:22:50;6.45;;;1.60;;
12118;SDS011;6123;48.864;9.200;2023-01-10T13:28:04;4.93;;;1.83;;
12118;SDS011;6123;48.864;9.200;2023-01-10T13:30:40;2.15;;;1.38;;
12118;SDS011;6123;48.864;9.200;2023-01-10T13:35:55;3.80;;;1.58;;
12118;SDS011;6123;48.864;9.200;2023-01-10T13:38:34;4.25;;;1.50;;
12118;SDS011;6123;48.864;9.200;2023-01-10T13:41:16;3.05;;;1.45;;
12118;SDS011;6123;48.864;9.200;2023-01-10T13:44:02;3.28;;;1.27;;
12118;SDS011;6123;48.864;9.200;2023-01-10T13:46:32;3.58;;;1.70;;
12118;SDS011;6123;48.864;9.200;2023-01-10T13:51:27;4.45;;;1.48;;
12118;SDS011;6123;48.864;9.200;2023-01-10T13:53:58;4.82;;;1.35;;
12118;SDS011;6123;48.864;9.200;2023-01-10T13:58:59;2.45;;;1.25;;
12118;SDS011;6123;48.864;9.200;2023-01-10T14:01:42;3.10;;;1.38;;
12118;SDS011;6123;48.864;9.200;2023-01-10T14:04:33;2.58;;;1.42;;
12118;SDS011;6123;48.864;9.200;2023-01-10T14:07:15;5.38;;;1.92;;
12118;SDS011;6123;48.864;9.200;2023-01-10T14:09:46;4.25;;;1.55;;
12118;SDS011;6123;48.864;9.200;2023-01-10T14:14:57;3.15;;;1.70;;
12118;SDS011;6123;48.864;9.200;2023-01-10T14:17:32;1.92;;;1.38;;
12118;SDS011;6123;48.864;9.200;2023-01-10T14:23:25;3.38;;;1.58;;
12118;SDS011;6123;48.864;9.200;2023-01-10T14:25:40;2.17;;;1.00;;
12118;SDS011;6123;48.864;9.200;2023-01-10T14:28:26;2.95;;;1.50;;
12118;SDS011;6123;48.864;9.200;2023-01-10T14:33:27;5.38;;;1.70;;
12118;SDS011;6123;48.864;9.200;2023-01-10T14:35:55;4.43;;;1.35;;
12118;SDS011;6123;48.864;9.200;2023-01-10T14:38:26;3.13;;;1.77;;
12118;SDS011;6123;48.864;9.200;2023-01-10T14:43:38;2.45;;;1.40;;
12118;SDS011;6123;48.864;9.200;2023-01-10T14:46:25;4.70;;;1.65;;
12118;SDS011;6123;48.864;9.200;2023-01-10T14:48:52;4.53;;;1.83;;
12118;SDS011;6123;48.864;9.200;2023-01-10T14:51:22;4.00;;;1.73;;
12118;SDS011;6123;48.864;9.200;2023-01-10T14:58:55;3.70;;;1.42;;
12118;SDS011;6123;48.864;9.200;2023-01-10T15:01:27;1.67;;;1.30;;
12118;SDS011;6123;48.864;9.200;2023-01-10T15:03:54;3.70;;;1.40;;
12118;SDS011;6123;48.864;9.200;2023-01-10T15:06:21;2.53;;;1.13;;
12118;SDS011;6123;48.864;9.200;2023-01-10T15:08:58;3.65;;;1.35;;
12118;SDS011;6123;48.864;9.200;2023-01-10T15:11:25;3.72;;;1.55;;
12118;SDS011;6123;48.864;9.200;2023-01-10T15:13:52;3.33;;;1.10;;
12118;SDS011;6123;48.864;9.200;2023-01-10T15:16:22;3.78;;;1.42;;
12118;SDS011;6123;48.864;9.200;2023-01-10T15:18:49;3.00;;;1.45;;
12118;SDS011;6123;48.864;9.200;2023-01-10T15:21:20;5.45;;;1.63;;
12118;SDS011;6123;48.864;9.200;2023-01-10T15:23:48;3.30;;;1.65;;
12118;SDS011;6123;48.864;9.200;2023-01-10T15:26:25;3.47;;;1.70;;
12118;SDS011;6123;48.864;9.200;2023-01-10T15:29:04;5.63;;;1.65;;
12118;SDS011;6123;48.864;9.200;2023-01-10T15:31:39;1.67;;;1.08;;
12118;SDS011;6123;48.864;9.200;2023-01-10T15:34:06;5.18;;;1.40;;
12118;SDS011;6123;48.864;9.200;2023-01-10T15:36:59;2.30;;;1.30;;
12118;SDS011;6123;48.864;9.200;2023-01-10T15:39:26;4.78;;;1.63;;
12118;SDS011;6123;48.864;9.200;2023-01-10T15:42:00;5.00;;;1.80;;
12118;SDS011;6123;48.864;9.200;2023-01-10T15:44:39;2.53;;;1.20;;
12118;SDS011;6123;48.864;9.200;2023-01-10T15:50:14;2.05;;;1.15;;
12118;SDS011;6123;48.864;9.200;2023-01-10T15:52:56;3.85;;;1.80;;
12118;SDS011;6123;48.864;9.200;2023-01-10T15:58:02;3.13;;;1.35;;
12118;SDS011;6123;48.864;9.200;2023-01-10T16:00:43;3.08;;;1.40;;
12118;SDS011;6123;48.864;9.200;2023-01-10T16:06:00;3.28;;;2.00;;
12118;SDS011;6123;48.864;9.200;2023-01-10T16:08:31;3.35;;;1.55;;
12118;SDS011;6123;48.864;9.200;2023-01-10T16:11:05;3.22;;;1.42;;
12118;SDS011;6123;48.864;9.200;2023-01-10T16:13:33;2.92;;;1.50;;
12118;SDS011;6123;48.864;9.200;2023-01-10T16:16:01;7.53;;;1.95;;
12118;SDS011;6123;48.864;9.200;2023-01-10T16:18:32;2.88;;;1.45;;
12118;SDS011;6123;48.864;9.200;2023-01-10T16:21:00;4.22;;;2.08;;
12118;SDS011;6123;48.864;9.200;2023-01-10T16:23:33;2.80;;;1.33;;
12118;SDS011;6123;48.864;9.200;2023-01-10T16:26:01;4.55;;;1.77;;
12118;SDS011;6123;48.864;9.200;2023-01-10T16:28:34;4.82;;;1.55;;
12118;SDS011;6123;48.864;9.200;2023-01-10T16:31:03;3.25;;;1.60;;
12118;SDS011;6123;48.864;9.200;2023-01-10T16:33:34;3.95;;;1.40;;
12118;SDS011;6123;48.864;9.200;2023-01-10T16:36:01;2.97;;;1.60;;
12118;SDS011;6123;48.864;9.200;2023-01-10T16:38:28;5.65;;;2.03;;
12118;SDS011;6123;48.864;9.200;2023-01-10T16:40:58;5.05;;;2.30;;
12118;SDS011;6123;48.864;9.200;2023-01-10T16:43:48;3.45;;;1.95;;
12118;SDS011;6123;48.864;9.200;2023-01-10T16:46:14;3.72;;;1.67;;
12118;SDS011;6123;48.864;9.200;2023-01-10T16:48:44;4.78;;;2.42;;
12118;SDS011;6123;48.864;9.200;2023-01-10T16:51:22;4.45;;;3.13;;
12118;SDS011;6123;48.864;9.200;2023-01-10T16:53:56;6.03;;;2.65;;
12118;SDS011;6123;48.864;9.200;2023-01-10T16:56:23;2.58;;;2.08;;
12118;SDS011;6123;48.864;9.200;2023-01-10T16:58:51;3.40;;;1.75;;
12118;SDS011;6123;48.864;9.200;2023-01-10T17:01:28;4.78;;;1.92;;
12118;SDS011;6123;48.864;9.200;2023-01-10T17:03:57;4.45;;;2.28;;
12118;SDS011;6123;48.864;9.200;2023-01-10T17:06:23;4.20;;;1.92;;
12118;SDS011;6123;48.864;9.200;2023-01-10T17:08:51;3.72;;;1.58;;
12118;SDS011;6123;48.864;9.200;2023-01-10T17:11:24;4.07;;;2.05;;
12118;SDS011;6123;48.864;9.200;2023-01-10T17:13:52;3.97;;;1.90;;
12118;SDS011;6123;48.864;9.200;2023-01-10T17:16:19;4.47;;;2.03;;
12118;SDS011;6123;48.864;9.200;2023-01-10T17:18:44;3.38;;;1.70;;
12118;SDS011;6123;48.864;9.200;2023-01-10T17:21:14;6.63;;;2.13;;
12118;SDS011;6123;48.864;9.200;2023-01-10T17:23:42;4.13;;;1.83;;